createdAt,value
2019-05-19T00:02:18.894Z,94744.70
2019-05-19T00:05:06.434Z,94735.41
2019-05-19T00:07:53.970Z,94735.97
2019-05-19T00:10:42.223Z,94741.09
2019-05-19T00:13:29.731Z,94731.00
2019-05-19T00:16:17.417Z,94739.83
2019-05-19T00:19:05.011Z,94732.09
2019-05-19T00:21:52.577Z,94732.05
2019-05-19T00:24:39.916Z,94732.78
2019-05-19T00:27:27.235Z,94734.14
2019-05-19T00:30:15.157Z,94726.19
2019-05-19T00:33:02.567Z,94727.98
2019-05-19T00:35:50.372Z,94731.75
2019-05-19T00:38:38.027Z,94724.63
2019-05-19T00:41:25.746Z,94725.55
2019-05-19T00:44:13.271Z,94730.23
2019-05-19T00:47:02.583Z,94731.07
2019-05-19T00:49:50.359Z,94732.36
2019-05-19T00:52:37.858Z,94736.13
2019-05-19T00:55:25.604Z,94723.77
2019-05-19T00:58:13.762Z,94725.89
2019-05-19T01:01:01.839Z,94727.77
2019-05-19T01:03:49.822Z,94731.00
2019-05-19T01:06:37.442Z,94728.53
2019-05-19T01:09:24.903Z,94727.86
2019-05-19T01:12:12.390Z,94727.12
2019-05-19T01:15:00.173Z,94726.61
2019-05-19T01:17:47.615Z,94733.63
2019-05-19T01:20:35.857Z,94733.71
2019-05-19T01:23:23.979Z,94734.34
2019-05-19T01:26:11.066Z,94734.05
2019-05-19T01:28:59.600Z,94733.33
2019-05-19T01:31:46.926Z,94732.69
2019-05-19T01:34:34.564Z,94733.63
2019-05-19T01:37:21.912Z,94733.16
2019-05-19T01:40:09.826Z,94729.03
2019-05-19T01:42:57.536Z,94733.63
2019-05-19T01:45:44.831Z,94739.06
2019-05-19T01:48:32.116Z,94733.76
2019-05-19T01:51:19.715Z,94729.97
2019-05-19T01:54:07.499Z,94724.84
2019-05-19T01:56:55.806Z,94728.14
2019-05-19T01:59:43.461Z,94723.80
2019-05-19T02:02:30.859Z,94728.30
2019-05-19T02:05:18.369Z,94716.17
2019-05-19T02:08:05.772Z,94721.34
2019-05-19T02:10:53.498Z,94718.16
2019-05-19T02:13:41.053Z,94718.80
2019-05-19T02:16:28.208Z,94712.90
2019-05-19T02:19:15.623Z,94711.59
2019-05-19T02:22:03.009Z,94708.40
2019-05-19T02:24:50.936Z,94711.06
2019-05-19T02:27:38.508Z,94712.67
2019-05-19T02:30:26.083Z,94712.73
2019-05-19T02:33:13.539Z,94717.09
2019-05-19T02:36:00.954Z,94713.23
2019-05-19T02:38:48.317Z,94709.25
2019-05-19T02:41:36.923Z,94717.27
2019-05-19T02:44:25.738Z,94706.41
2019-05-19T02:47:13.499Z,94706.73
2019-05-19T02:50:01.782Z,94708.09
2019-05-19T02:52:50.344Z,94703.55
2019-05-19T02:55:37.962Z,94700.67
2019-05-19T02:58:26.489Z,94706.95
2019-05-19T03:01:14.124Z,94703.75
2019-05-19T03:04:01.379Z,94705.11
2019-05-19T03:06:48.903Z,94696.96
2019-05-19T03:09:36.420Z,94696.78
2019-05-19T03:12:24.214Z,94696.16
2019-05-19T03:15:11.785Z,94696.71
2019-05-19T03:17:59.394Z,94693.06
2019-05-19T03:20:47.167Z,94693.91
2019-05-19T03:23:35.082Z,94694.52
2019-05-19T03:26:22.438Z,94699.42
2019-05-19T03:29:11.265Z,94693.78
2019-05-19T03:32:17.580Z,94690.38
2019-05-19T03:35:05.176Z,94697.38
2019-05-19T03:37:52.607Z,94697.88
2019-05-19T03:40:40.646Z,94694.72
2019-05-19T03:43:28.330Z,94689.28
2019-05-19T03:46:15.657Z,94691.88
2019-05-19T03:49:03.095Z,94687.91
2019-05-19T03:51:50.882Z,94691.69
2019-05-19T03:54:38.305Z,94684.61
2019-05-19T03:57:25.807Z,94683.64
2019-05-19T04:00:13.680Z,94685.98
2019-05-19T04:03:01.479Z,94685.61
2019-05-19T04:05:48.817Z,94681.98
2019-05-19T04:08:36.458Z,94683.94
2019-05-19T04:11:24.410Z,94685.43
2019-05-19T04:14:12.338Z,94684.07
2019-05-19T04:16:59.682Z,94683.30
2019-05-19T04:19:47.482Z,94686.53
2019-05-19T04:22:34.853Z,94686.57
2019-05-19T04:25:22.153Z,94683.64
2019-05-19T04:28:09.661Z,94679.05
2019-05-19T04:30:56.915Z,94686.79
2019-05-19T04:33:44.376Z,94683.34
2019-05-19T04:36:31.702Z,94692.55
2019-05-19T04:39:19.229Z,94685.55
2019-05-19T04:42:06.734Z,94690.14
2019-05-19T04:44:54.157Z,94684.28
2019-05-19T04:47:41.486Z,94690.14
2019-05-19T04:50:29.051Z,94685.89
2019-05-19T04:53:16.618Z,94692.55
2019-05-19T04:56:04.536Z,94687.47
2019-05-19T04:58:51.892Z,94686.66
2019-05-19T05:01:39.286Z,94692.72
2019-05-19T05:04:29.359Z,94687.70
2019-05-19T05:07:15.913Z,94692.09
2019-05-19T05:10:03.502Z,94693.14
2019-05-19T05:12:50.600Z,94687.29
2019-05-19T05:15:38.125Z,94687.33
2019-05-19T05:18:25.562Z,94679.95
2019-05-19T05:21:13.224Z,94683.57
2019-05-19T05:24:00.825Z,94683.90
2019-05-19T05:26:50.357Z,94689.75
2019-05-19T05:29:38.262Z,94684.94
2019-05-19T05:32:26.058Z,94681.91
2019-05-19T05:35:14.128Z,94690.91
2019-05-19T05:38:01.741Z,94684.28
2019-05-19T05:40:49.375Z,94689.30
2019-05-19T05:43:36.630Z,94688.30
2019-05-19T05:46:24.196Z,94685.19
2019-05-19T05:49:11.522Z,94688.02
2019-05-19T05:51:59.144Z,94698.16
2019-05-19T05:54:46.327Z,94689.13
2019-05-19T05:57:34.042Z,94692.47
2019-05-19T06:00:21.713Z,94698.03
2019-05-19T06:03:09.350Z,94700.75
2019-05-19T06:05:58.129Z,94691.84
2019-05-19T06:08:45.617Z,94697.22
2019-05-19T06:11:33.323Z,94700.26
2019-05-19T06:14:21.284Z,94693.34
2019-05-19T06:17:08.917Z,94696.45
2019-05-19T06:19:56.250Z,94692.02
2019-05-19T06:22:55.716Z,94693.42
2019-05-19T06:25:33.308Z,94702.00
2019-05-19T06:28:21.064Z,94699.88
2019-05-19T06:31:08.335Z,94694.68
2019-05-19T06:33:55.878Z,94702.96
2019-05-19T06:36:43.246Z,94693.91
2019-05-19T06:39:30.511Z,94703.32
2019-05-19T06:42:17.561Z,94705.01
2019-05-19T06:45:04.880Z,94698.27
2019-05-19T06:47:52.649Z,94696.39
2019-05-19T06:50:40.999Z,94692.31
2019-05-19T06:53:28.366Z,94692.20
2019-05-19T06:56:15.798Z,94696.30
2019-05-19T06:59:03.715Z,94692.94
2019-05-19T07:01:51.010Z,94691.19
2019-05-19T07:04:38.404Z,94695.27
2019-05-19T07:07:26.736Z,94691.83
2019-05-19T07:10:14.302Z,94680.81
2019-05-19T07:13:01.349Z,94688.87
2019-05-19T07:15:48.966Z,94684.87
2019-05-19T07:18:36.362Z,94689.19
2019-05-19T07:21:23.658Z,94694.82
2019-05-19T07:24:11.637Z,94681.19
2019-05-19T07:26:58.963Z,94688.30
2019-05-19T07:29:46.673Z,94685.63
2019-05-19T07:32:34.529Z,94684.08
2019-05-19T07:35:21.913Z,94683.97
2019-05-19T07:38:09.069Z,94685.56
2019-05-19T07:40:56.764Z,94688.84
2019-05-19T07:43:44.165Z,94689.77
2019-05-19T07:46:31.681Z,94692.93
2019-05-19T07:49:19.306Z,94689.64
2019-05-19T07:52:06.597Z,94695.91
2019-05-19T07:54:53.905Z,94705.12
2019-05-19T07:57:41.276Z,94701.79
2019-05-19T08:00:29.224Z,94698.00
2019-05-19T08:03:16.608Z,94706.16
2019-05-19T08:06:04.354Z,94699.20
2019-05-19T08:08:52.029Z,94699.56
2019-05-19T08:11:39.026Z,94698.98
2019-05-19T08:14:26.473Z,94701.92
2019-05-19T08:17:13.944Z,94701.63
2019-05-19T08:20:03.094Z,94695.91
2019-05-19T08:22:51.450Z,94690.33
2019-05-19T08:25:39.113Z,94698.53
2019-05-19T08:28:26.840Z,94698.72
2019-05-19T08:31:14.412Z,94702.05
2019-05-19T08:34:01.655Z,94697.73
2019-05-19T08:36:49.704Z,94698.52
2019-05-19T08:39:37.343Z,94687.78
2019-05-19T08:42:27.147Z,94691.48
2019-05-19T08:45:14.367Z,94693.27
2019-05-19T08:48:02.601Z,94685.03
2019-05-19T08:50:50.380Z,94684.41
2019-05-19T08:53:38.000Z,94679.83
2019-05-19T08:56:25.910Z,94678.09
2019-05-19T08:59:13.332Z,94678.31
2019-05-19T09:02:00.894Z,94673.55
2019-05-19T09:04:48.380Z,94679.17
2019-05-19T09:07:36.361Z,94681.34
2019-05-19T09:10:23.958Z,94678.59
2019-05-19T09:13:11.706Z,94679.59
2019-05-19T09:15:59.413Z,94675.13
2019-05-19T09:18:46.860Z,94674.01
2019-05-19T09:21:34.431Z,94668.89
2019-05-19T09:24:30.159Z,94670.56
2019-05-19T09:27:11.136Z,94672.70
2019-05-19T09:29:58.727Z,94666.55
2019-05-19T09:32:46.633Z,94666.73
2019-05-19T09:35:34.309Z,94666.31
2019-05-19T09:38:22.023Z,94666.19
2019-05-19T09:41:09.304Z,94665.31
2019-05-19T09:43:57.129Z,94659.81
2019-05-19T09:46:44.550Z,94666.00
2019-05-19T09:49:35.653Z,94658.20
2019-05-19T09:52:22.861Z,94668.59
2019-05-19T09:55:11.456Z,94659.16
2019-05-19T09:57:58.907Z,94663.43
2019-05-19T10:00:46.853Z,94660.46
2019-05-19T10:03:34.028Z,94660.05
2019-05-19T10:06:21.776Z,94655.20
2019-05-19T10:09:21.322Z,94657.69
2019-05-19T10:12:08.735Z,94646.78
2019-05-19T10:14:56.131Z,94653.27
2019-05-19T10:17:44.218Z,94644.03
2019-05-19T10:20:31.869Z,94645.85
2019-05-19T10:23:19.706Z,94645.13
2019-05-19T10:26:07.467Z,94637.47
2019-05-19T10:28:55.470Z,94640.47
2019-05-19T10:31:42.930Z,94645.19
2019-05-19T10:34:30.473Z,94639.28
2019-05-19T10:37:18.101Z,94642.61
2019-05-19T10:40:06.642Z,94638.09
2019-05-19T10:42:54.566Z,94639.41
2019-05-19T10:45:43.883Z,94637.75
2019-05-19T10:48:31.524Z,94630.86
2019-05-19T10:51:21.594Z,94624.06
2019-05-19T10:54:09.102Z,94624.22
2019-05-19T10:56:56.428Z,94628.40
2019-05-19T10:59:43.786Z,94628.03
2019-05-19T11:02:31.467Z,94629.13
2019-05-19T11:05:18.629Z,94631.08
2019-05-19T11:08:05.676Z,94622.67
2019-05-19T11:10:53.130Z,94630.11
2019-05-19T11:13:40.459Z,94629.91
2019-05-19T11:16:28.285Z,94623.21
2019-05-19T11:19:15.302Z,94627.72
2019-05-19T11:22:03.021Z,94623.56
2019-05-19T11:24:50.409Z,94628.58
2019-05-19T11:27:38.089Z,94620.14
2019-05-19T11:30:25.571Z,94617.41
2019-05-19T11:33:12.690Z,94616.84
2019-05-19T11:36:00.093Z,94610.70
2019-05-19T11:38:47.102Z,94606.16
2019-05-19T11:41:35.157Z,94600.53
2019-05-19T11:44:22.566Z,94601.33
2019-05-19T11:47:10.180Z,94599.23
2019-05-19T11:49:57.576Z,94604.19
2019-05-19T11:52:44.681Z,94607.95
2019-05-19T11:55:32.514Z,94600.70
2019-05-19T11:58:19.998Z,94598.33
2019-05-19T12:01:07.528Z,94597.13
2019-05-19T12:03:55.548Z,94597.06
2019-05-19T12:06:42.995Z,94603.90
2019-05-19T12:09:30.567Z,94598.09
2019-05-19T12:12:17.737Z,94593.20
2019-05-19T12:15:05.435Z,94597.39
2019-05-19T12:17:52.590Z,94597.67
2019-05-19T12:20:40.036Z,94592.28
2019-05-19T12:23:27.433Z,94593.72
2019-05-19T12:26:23.308Z,94594.77
2019-05-19T12:29:03.488Z,94596.87
2019-05-19T12:31:51.027Z,94592.64
2019-05-19T12:34:38.039Z,94590.61
2019-05-19T12:37:25.397Z,94593.44
2019-05-19T12:40:12.825Z,94589.58
2019-05-19T12:42:59.835Z,94585.95
2019-05-19T12:45:47.169Z,94583.34
2019-05-19T12:48:35.943Z,94587.40
2019-05-19T12:51:26.763Z,94577.47
2019-05-19T12:54:13.115Z,94575.19
2019-05-19T12:57:00.680Z,94576.89
2019-05-19T12:59:47.932Z,94574.93
2019-05-19T13:02:38.116Z,94575.50
2019-05-19T13:05:24.733Z,94570.80
2019-05-19T13:08:12.680Z,94569.48
2019-05-19T13:10:59.778Z,94565.23
2019-05-19T13:13:47.450Z,94574.69
2019-05-19T13:16:35.468Z,94560.48
2019-05-19T13:19:23.387Z,94563.88
2019-05-19T13:22:10.758Z,94566.53
2019-05-19T13:24:58.410Z,94565.87
2019-05-19T13:27:45.786Z,94565.02
2019-05-19T13:30:33.075Z,94574.72
2019-05-19T13:33:20.449Z,94573.80
2019-05-19T13:36:09.072Z,94567.11
2019-05-19T13:38:56.441Z,94563.64
2019-05-19T13:41:44.099Z,94557.05
2019-05-19T13:44:31.716Z,94549.76
2019-05-19T13:47:19.352Z,94549.33
2019-05-19T13:50:07.034Z,94546.88
2019-05-19T13:52:54.484Z,94547.80
2019-05-19T13:55:42.149Z,94544.25
2019-05-19T13:58:29.469Z,94541.67
2019-05-19T14:01:28.187Z,94540.46
2019-05-19T14:04:06.406Z,94539.99
2019-05-19T14:06:56.454Z,94534.03
2019-05-19T14:09:44.957Z,94538.38
2019-05-19T14:12:32.895Z,94540.30
2019-05-19T14:15:21.268Z,94542.97
2019-05-19T14:18:08.734Z,94546.14
2019-05-19T14:20:56.660Z,94543.46
2019-05-19T14:23:43.962Z,94542.50
2019-05-19T14:26:36.580Z,94544.56
2019-05-19T14:29:24.197Z,94535.26
2019-05-19T14:32:11.240Z,94544.86
2019-05-19T14:34:58.674Z,94536.13
2019-05-19T14:37:47.076Z,94540.25
2019-05-19T14:40:34.409Z,94528.61
2019-05-19T14:43:22.626Z,94532.61
2019-05-19T14:46:10.440Z,94525.36
2019-05-19T14:48:57.583Z,94524.67
2019-05-19T14:51:45.016Z,94524.78
2019-05-19T14:54:32.480Z,94529.55
2019-05-19T14:57:20.123Z,94531.77
2019-05-19T15:00:07.915Z,94532.97
2019-05-19T15:02:55.263Z,94534.06
2019-05-19T15:05:42.768Z,94534.23
2019-05-19T15:08:30.201Z,94534.59
2019-05-19T15:11:17.604Z,94528.89
2019-05-19T15:14:05.176Z,94525.74
2019-05-19T15:16:52.525Z,94529.44
2019-05-19T15:19:39.963Z,94532.14
2019-05-19T15:22:27.388Z,94525.88
2019-05-19T15:25:15.410Z,94523.85
2019-05-19T15:28:05.438Z,94531.92
2019-05-19T15:30:52.162Z,94528.47
2019-05-19T15:33:40.162Z,94529.35
2019-05-19T15:36:28.087Z,94537.73
2019-05-19T15:39:15.538Z,94535.98
2019-05-19T15:42:03.516Z,94536.63
2019-05-19T15:44:51.046Z,94527.34
2019-05-19T15:47:38.701Z,94519.88
2019-05-19T15:50:26.026Z,94531.09
2019-05-19T15:53:13.539Z,94530.74
2019-05-19T15:56:00.950Z,94521.69
2019-05-19T15:58:48.329Z,94525.28
2019-05-19T16:01:36.054Z,94522.34
2019-05-19T16:04:23.439Z,94513.30
2019-05-19T16:07:10.934Z,94523.33
2019-05-19T16:09:58.597Z,94523.33
2019-05-19T16:12:45.754Z,94518.63
2019-05-19T16:15:33.572Z,94527.48
2019-05-19T16:18:20.761Z,94532.16
2019-05-19T16:21:08.163Z,94517.34
2019-05-19T16:23:55.685Z,94516.86
2019-05-19T16:26:43.428Z,94519.30
2019-05-19T16:29:30.672Z,94515.31
2019-05-19T16:32:18.499Z,94511.02
2019-05-19T16:35:11.074Z,94518.95
2019-05-19T16:37:58.133Z,94518.05
2019-05-19T16:40:46.233Z,94526.84
2019-05-19T16:43:34.529Z,94527.03
2019-05-19T16:46:22.334Z,94519.30
2019-05-19T16:49:10.033Z,94522.63
2019-05-19T16:51:57.738Z,94521.00
2019-05-19T16:54:49.646Z,94519.59
2019-05-19T16:57:36.863Z,94524.70
2019-05-19T17:00:25.770Z,94525.88
2019-05-19T17:03:13.433Z,94523.38
2019-05-19T17:06:04.267Z,94531.55
2019-05-19T17:08:52.198Z,94534.11
2019-05-19T17:11:39.830Z,94539.91
2019-05-19T17:14:27.124Z,94538.65
2019-05-19T17:17:14.313Z,94542.74
2019-05-19T17:20:01.885Z,94540.93
2019-05-19T17:22:49.504Z,94543.84
2019-05-19T17:25:37.461Z,94541.92
2019-05-19T17:28:24.565Z,94537.23
2019-05-19T17:31:12.275Z,94544.16
2019-05-19T17:34:00.604Z,94548.52
2019-05-19T17:36:47.764Z,94551.34
2019-05-19T17:39:35.355Z,94557.95
2019-05-19T17:42:22.685Z,94553.39
2019-05-19T17:45:10.966Z,94558.52
2019-05-19T17:48:09.696Z,94564.09
2019-05-19T17:50:48.196Z,94563.73
2019-05-19T17:53:35.737Z,94566.48
2019-05-19T17:56:23.945Z,94562.78
2019-05-19T17:59:16.415Z,94558.02
2019-05-19T18:02:00.062Z,94560.97
2019-05-19T18:04:47.147Z,94562.92
2019-05-19T18:07:34.597Z,94569.17
2019-05-19T18:10:22.142Z,94579.36
2019-05-19T18:13:10.015Z,94578.63
2019-05-19T18:15:57.656Z,94576.86
2019-05-19T18:18:45.798Z,94584.10
2019-05-19T18:21:33.637Z,94576.49
2019-05-19T18:24:21.087Z,94578.45
2019-05-19T18:27:08.359Z,94577.50
2019-05-19T18:29:55.746Z,94578.07
2019-05-19T18:32:43.863Z,94584.54
2019-05-19T18:35:31.679Z,94585.12
2019-05-19T18:38:19.187Z,94583.54
2019-05-19T18:41:06.745Z,94582.97
2019-05-19T18:43:54.096Z,94582.98
2019-05-19T18:46:41.737Z,94583.95
2019-05-19T18:49:29.818Z,94592.92
2019-05-19T18:52:17.662Z,94596.42
2019-05-19T18:55:05.754Z,94602.70
2019-05-19T18:57:53.237Z,94608.54
2019-05-19T19:00:40.733Z,94615.37
2019-05-19T19:03:29.284Z,94618.11
2019-05-19T19:06:17.010Z,94617.89
2019-05-19T19:09:05.082Z,94618.47
2019-05-19T19:11:52.478Z,94613.00
2019-05-19T19:14:39.565Z,94615.93
2019-05-19T19:17:26.935Z,94620.39
2019-05-19T19:20:14.909Z,94618.63
2019-05-19T19:23:02.693Z,94623.19
2019-05-19T19:25:50.077Z,94632.84
2019-05-19T19:28:37.499Z,94637.23
2019-05-19T19:31:25.401Z,94646.55
2019-05-19T19:34:12.993Z,94651.58
2019-05-19T19:37:00.375Z,94656.77
2019-05-19T19:39:48.039Z,94653.61
2019-05-19T19:42:35.498Z,94648.88
2019-05-19T19:45:22.598Z,94651.84
2019-05-19T19:48:10.144Z,94661.92
2019-05-19T19:50:57.282Z,94658.94
2019-05-19T19:53:45.042Z,94661.69
2019-05-19T19:56:32.313Z,94667.93
2019-05-19T19:59:19.826Z,94658.91
2019-05-19T20:02:07.251Z,94668.46
2019-05-19T20:04:55.017Z,94670.50
2019-05-19T20:07:42.731Z,94678.81
2019-05-19T20:10:30.419Z,94673.22
2019-05-19T20:13:17.900Z,94684.14
2019-05-19T20:16:05.328Z,94678.25
2019-05-19T20:18:52.613Z,94678.59
2019-05-19T20:21:40.074Z,94687.77
2019-05-19T20:24:27.555Z,94682.78
2019-05-19T20:27:15.147Z,94692.13
2019-05-19T20:30:02.583Z,94694.19
2019-05-19T20:32:49.875Z,94699.06
2019-05-19T20:35:37.334Z,94696.52
2019-05-19T20:38:25.092Z,94696.97
2019-05-19T20:41:12.414Z,94702.06
2019-05-19T20:43:59.565Z,94700.75
2019-05-19T20:46:46.607Z,94705.59
2019-05-19T20:49:34.217Z,94700.75
2019-05-19T20:52:22.931Z,94708.17
2019-05-19T20:55:10.979Z,94697.54
2019-05-19T20:57:58.340Z,94694.14
2019-05-19T21:00:50.645Z,94701.65
2019-05-19T21:03:34.526Z,94696.63
2019-05-19T21:06:21.789Z,94697.93
2019-05-19T21:09:09.053Z,94693.38
2019-05-19T21:11:56.407Z,94690.17
2019-05-19T21:14:44.347Z,94684.17
2019-05-19T21:17:33.112Z,94689.58
2019-05-19T21:20:20.305Z,94688.48
2019-05-19T21:23:10.469Z,94693.11
2019-05-19T21:25:57.811Z,94690.02
2019-05-19T21:28:45.353Z,94691.47
2019-05-19T21:31:32.734Z,94700.50
2019-05-19T21:34:20.201Z,94690.08
2019-05-19T21:37:07.950Z,94696.00
2019-05-19T21:39:55.259Z,94695.41
2019-05-19T21:42:42.589Z,94703.47
2019-05-19T21:45:29.988Z,94693.04
2019-05-19T21:48:20.114Z,94699.24
2019-05-19T21:51:07.875Z,94704.93
2019-05-19T21:53:55.499Z,94693.38
2019-05-19T21:56:43.127Z,94695.52
2019-05-19T21:59:30.858Z,94688.02
2019-05-19T22:02:19.831Z,94685.58
2019-05-19T22:05:07.054Z,94693.45
2019-05-19T22:08:02.662Z,94694.99
2019-05-19T22:10:50.414Z,94693.21
2019-05-19T22:13:37.962Z,94690.88
2019-05-19T22:16:25.418Z,94702.20
2019-05-19T22:19:15.772Z,94702.31
2019-05-19T22:22:02.333Z,94701.80
2019-05-19T22:24:50.136Z,94691.40
2019-05-19T22:27:38.005Z,94692.97
2019-05-19T22:30:25.730Z,94690.66
2019-05-19T22:33:12.999Z,94692.75
2019-05-19T22:36:00.505Z,94698.44
2019-05-19T22:38:47.898Z,94692.52
2019-05-19T22:41:35.159Z,94688.19
2019-05-19T22:44:23.057Z,94688.70
2019-05-19T22:47:10.570Z,94685.58
2019-05-19T22:49:57.869Z,94688.30
2019-05-19T22:52:45.204Z,94688.64
2019-05-19T22:55:32.213Z,94685.92
2019-05-19T22:58:19.315Z,94682.50
2019-05-19T23:01:07.797Z,94684.10
2019-05-19T23:03:54.902Z,94684.63
2019-05-19T23:06:42.391Z,94683.93
2019-05-19T23:09:29.786Z,94683.91
2019-05-19T23:12:17.520Z,94680.71
2019-05-19T23:15:05.675Z,94687.46
2019-05-19T23:17:53.120Z,94680.45
2019-05-19T23:20:41.288Z,94678.44
2019-05-19T23:23:29.125Z,94681.89
2019-05-19T23:26:16.482Z,94671.89
2019-05-19T23:29:03.876Z,94673.81
2019-05-19T23:32:04.968Z,94671.89
2019-05-19T23:34:40.556Z,94667.99
2019-05-19T23:37:28.154Z,94662.88
2019-05-19T23:40:15.730Z,94661.92
2019-05-19T23:43:03.135Z,94668.73
2019-05-19T23:45:50.847Z,94670.83
2019-05-19T23:48:38.410Z,94679.20
2019-05-19T23:51:25.730Z,94677.64
2019-05-19T23:54:13.392Z,94680.13
2019-05-19T23:57:00.873Z,94680.74
2019-05-19T23:59:48.360Z,94687.30
